createdAt,value
2023-01-09T00:01:22.173Z,5.22
2023-01-09T00:03:50.174Z,5.23
2023-01-09T00:06:18.039Z,5.18
2023-01-09T00:08:46.243Z,5.19
2023-01-09T00:11:15.503Z,5.22
2023-01-09T00:13:43.422Z,5.24
2023-01-09T00:16:11.353Z,5.30
2023-01-09T00:18:39.276Z,5.49
2023-01-09T00:21:10.065Z,5.63
2023-01-09T00:23:38.213Z,5.76
2023-01-09T00:26:08.030Z,5.89
2023-01-09T00:28:37.444Z,6.01
2023-01-09T00:31:06.926Z,6.05
2023-01-09T00:33:36.795Z,6.13
2023-01-09T00:36:04.972Z,6.18
2023-01-09T00:38:33.103Z,6.22
2023-01-09T00:41:03.358Z,6.24
2023-01-09T00:43:34.821Z,6.22
2023-01-09T00:46:07.761Z,6.27
2023-01-09T00:48:38.393Z,6.27
2023-01-09T00:51:08.124Z,6.22
2023-01-09T00:53:39.854Z,6.12
2023-01-09T00:56:16.032Z,6.12
2023-01-09T01:03:13.182Z,6.05
2023-01-09T01:05:58.296Z,5.97
2023-01-09T01:08:26.202Z,5.86
2023-01-09T01:10:54.135Z,5.82
2023-01-09T01:13:21.957Z,5.74
2023-01-09T01:15:49.731Z,5.67
2023-01-09T01:18:18.914Z,5.63
2023-01-09T01:20:46.912Z,5.68
2023-01-09T01:23:14.762Z,5.80
2023-01-09T01:25:43.621Z,5.76
2023-01-09T01:28:11.512Z,5.85
2023-01-09T01:30:40.047Z,5.87
2023-01-09T01:33:08.616Z,5.86
2023-01-09T01:35:38.752Z,5.68
2023-01-09T01:38:06.743Z,5.82
2023-01-09T01:40:35.953Z,5.88
2023-01-09T01:43:03.771Z,5.90
2023-01-09T01:45:33.158Z,5.85
2023-01-09T01:48:04.985Z,5.82
2023-01-09T01:51:04.720Z,5.81
2023-01-09T01:53:37.624Z,5.81
2023-01-09T01:56:14.629Z,5.90
2023-01-09T01:58:45.882Z,6.03
2023-01-09T02:01:14.070Z,6.07
2023-01-09T02:03:43.137Z,6.35
2023-01-09T02:06:13.621Z,6.45
2023-01-09T02:08:41.505Z,6.57
2023-01-09T02:11:09.440Z,6.65
2023-01-09T02:13:40.465Z,6.69
2023-01-09T02:16:20.570Z,6.72
2023-01-09T02:18:52.316Z,6.77
2023-01-09T02:21:40.147Z,6.85
2023-01-09T02:24:53.468Z,6.99
2023-01-09T02:27:54.583Z,7.16
2023-01-09T02:30:45.527Z,7.32
2023-01-09T02:33:27.431Z,7.41
2023-01-09T02:36:08.331Z,7.47
2023-01-09T02:38:48.475Z,7.44
2023-01-09T02:41:21.589Z,7.52
2023-01-09T02:43:49.457Z,7.57
2023-01-09T02:46:22.478Z,7.46
2023-01-09T02:48:53.636Z,7.71
2023-01-09T02:51:30.622Z,7.78
2023-01-09T02:54:21.759Z,7.90
2023-01-09T02:57:17.928Z,7.93
2023-01-09T02:59:58.185Z,8.06
2023-01-09T03:02:45.497Z,8.15
2023-01-09T03:05:21.266Z,8.21
2023-01-09T03:07:55.604Z,8.33
2023-01-09T03:10:27.342Z,8.42
2023-01-09T03:12:58.970Z,8.50
2023-01-09T03:15:33.095Z,8.54
2023-01-09T03:18:05.127Z,8.56
2023-01-09T03:20:33.540Z,8.58
2023-01-09T03:23:03.634Z,8.60
2023-01-09T03:25:33.019Z,8.61
2023-01-09T03:29:25.673Z,8.59
2023-01-09T03:31:53.490Z,8.59
2023-01-09T03:34:23.695Z,8.62
2023-01-09T03:36:51.527Z,8.56
2023-01-09T03:39:19.386Z,8.66
2023-01-09T03:41:47.322Z,8.64
2023-01-09T03:44:15.112Z,8.62
2023-01-09T03:47:11.801Z,8.62
2023-01-09T03:49:41.022Z,8.63
2023-01-09T03:52:08.878Z,8.65
2023-01-09T03:54:36.722Z,8.67
2023-01-09T03:57:04.630Z,8.67
2023-01-09T03:59:32.570Z,8.68
2023-01-09T04:02:02.870Z,8.67
2023-01-09T04:04:31.599Z,8.70
2023-01-09T04:07:00.750Z,8.70
2023-01-09T04:09:28.652Z,8.60
2023-01-09T04:11:56.511Z,8.67
2023-01-09T04:14:24.498Z,8.66
2023-01-09T04:21:35.828Z,8.64
2023-01-09T04:24:05.921Z,8.65
2023-01-09T04:31:05.298Z,8.64
2023-01-09T04:33:33.134Z,8.64
2023-01-09T04:36:01.241Z,8.63
2023-01-09T04:38:29.152Z,8.62
2023-01-09T04:40:58.373Z,8.63
2023-01-09T04:43:26.446Z,8.61
2023-01-09T04:45:54.459Z,8.57
2023-01-09T04:48:22.301Z,8.60
2023-01-09T04:50:50.318Z,8.60
2023-01-09T04:53:18.138Z,8.59
2023-01-09T04:55:47.000Z,8.57
2023-01-09T04:58:21.958Z,8.58
2023-01-09T05:00:50.153Z,8.55
2023-01-09T05:03:18.082Z,8.56
2023-01-09T05:10:38.607Z,8.58
2023-01-09T05:13:06.415Z,8.60
2023-01-09T05:15:35.549Z,8.59
2023-01-09T05:18:03.390Z,8.58
2023-01-09T05:20:31.225Z,8.57
2023-01-09T05:22:59.077Z,8.58
2023-01-09T05:25:26.943Z,8.63
2023-01-09T05:27:54.754Z,8.66
2023-01-09T05:30:22.732Z,8.67
2023-01-09T05:32:51.952Z,8.68
2023-01-09T05:35:20.200Z,8.68
2023-01-09T05:37:48.511Z,8.72
2023-01-09T05:40:16.428Z,8.72
2023-01-09T05:42:45.109Z,8.71
2023-01-09T05:45:13.446Z,8.57
2023-01-09T05:52:14.278Z,8.73
2023-01-09T05:54:42.087Z,8.74
2023-01-09T05:57:09.992Z,8.75
2023-01-09T05:59:37.834Z,8.76
2023-01-09T06:02:05.901Z,8.75
2023-01-09T06:04:33.895Z,8.74
2023-01-09T06:07:01.743Z,8.76
2023-01-09T06:09:31.789Z,8.77
2023-01-09T06:11:59.749Z,8.77
2023-01-09T06:14:27.604Z,8.77
2023-01-09T06:16:55.479Z,8.75
2023-01-09T06:19:23.366Z,8.76
2023-01-09T06:21:51.163Z,8.76
2023-01-09T06:24:19.282Z,8.76
2023-01-09T06:26:48.524Z,8.72
2023-01-09T06:29:16.551Z,8.75
2023-01-09T06:31:45.543Z,8.72
2023-01-09T06:34:13.893Z,8.72
2023-01-09T06:36:41.805Z,8.67
2023-01-09T06:39:09.722Z,8.48
2023-01-09T06:41:37.536Z,8.66
2023-01-09T06:44:06.743Z,8.66
2023-01-09T06:46:34.636Z,8.68
2023-01-09T06:49:02.490Z,8.70
2023-01-09T06:51:30.379Z,8.71
2023-01-09T06:53:58.215Z,8.72
2023-01-09T06:56:26.016Z,8.72
2023-01-09T06:58:54.003Z,8.72
2023-01-09T07:01:23.285Z,8.73
2023-01-09T07:03:51.515Z,8.55
2023-01-09T07:06:20.102Z,8.75
2023-01-09T07:08:48.087Z,8.75
2023-01-09T07:11:16.075Z,8.76
2023-01-09T07:13:43.904Z,8.78
2023-01-09T07:16:11.828Z,8.80
2023-01-09T07:18:41.166Z,8.83
2023-01-09T07:21:09.120Z,8.87
2023-01-09T07:23:37.061Z,8.91
2023-01-09T07:26:05.183Z,8.93
2023-01-09T07:28:33.075Z,8.92
2023-01-09T07:31:02.542Z,8.94
2023-01-09T07:33:30.422Z,8.94
2023-01-09T07:35:59.610Z,8.96
2023-01-09T07:38:28.127Z,8.97
2023-01-09T07:40:56.142Z,8.98
2023-01-09T07:43:24.050Z,8.97
2023-01-09T07:45:51.959Z,8.97
2023-01-09T07:48:19.803Z,8.95
2023-01-09T07:50:47.686Z,8.85
2023-01-09T07:53:16.955Z,8.97
2023-01-09T07:55:44.787Z,8.96
2023-01-09T07:58:12.735Z,8.93
2023-01-09T08:00:40.857Z,9.06
2023-01-09T08:03:08.861Z,8.82
2023-01-09T08:05:36.871Z,9.15
2023-01-09T08:08:04.743Z,9.19
2023-01-09T08:10:33.981Z,9.23
2023-01-09T08:13:02.202Z,9.26
2023-01-09T08:15:30.789Z,9.12
2023-01-09T08:17:58.681Z,9.12
2023-01-09T08:20:27.463Z,9.02
2023-01-09T08:22:55.534Z,9.38
2023-01-09T08:25:23.621Z,9.08
2023-01-09T08:27:52.953Z,9.33
2023-01-09T08:30:22.167Z,9.19
2023-01-09T08:32:51.283Z,9.38
2023-01-09T08:35:20.854Z,9.48
2023-01-09T08:37:49.427Z,9.48
2023-01-09T08:40:18.254Z,9.48
2023-01-09T08:43:03.795Z,9.48
2023-01-09T08:45:51.318Z,9.48
2023-01-09T08:48:19.163Z,9.44
2023-01-09T08:50:47.041Z,9.50
2023-01-09T08:53:15.449Z,9.55
2023-01-09T08:55:43.872Z,9.56
2023-01-09T08:58:11.847Z,9.57
2023-01-09T09:00:41.068Z,9.53
2023-01-09T09:03:10.839Z,9.47
2023-01-09T09:05:38.781Z,9.50
2023-01-09T09:08:07.159Z,9.51
2023-01-09T09:10:35.273Z,9.50
2023-01-09T09:13:03.177Z,9.50
2023-01-09T09:15:31.143Z,9.53
2023-01-09T09:18:02.139Z,9.52
2023-01-09T09:20:32.676Z,9.54
2023-01-09T09:23:00.634Z,9.54
2023-01-09T09:25:29.111Z,9.42
2023-01-09T09:27:57.140Z,9.46
2023-01-09T09:30:25.503Z,9.52
2023-01-09T09:32:53.504Z,9.53
2023-01-09T09:35:22.981Z,9.52
2023-01-09T09:37:55.233Z,9.51
2023-01-09T09:40:35.151Z,9.52
2023-01-09T09:43:43.349Z,9.54
2023-01-09T09:46:24.079Z,9.55
2023-01-09T09:48:56.983Z,9.60
2023-01-09T09:51:51.669Z,9.74
2023-01-09T09:54:22.682Z,9.83
2023-01-09T09:56:53.880Z,9.86
2023-01-09T09:59:26.650Z,9.88
2023-01-09T10:01:58.776Z,9.90
2023-01-09T10:04:29.513Z,9.89
2023-01-09T10:07:06.157Z,9.88
2023-01-09T10:09:46.491Z,9.83
2023-01-09T10:12:27.111Z,9.78
2023-01-09T10:14:55.970Z,9.76
2023-01-09T10:17:45.323Z,9.72
2023-01-09T10:20:43.513Z,9.76
2023-01-09T10:23:31.625Z,9.74
2023-01-09T10:26:05.150Z,9.71
2023-01-09T10:28:54.580Z,9.67
2023-01-09T10:31:29.766Z,9.66
2023-01-09T10:34:12.777Z,9.60
2023-01-09T10:36:55.233Z,9.58
2023-01-09T10:39:28.590Z,9.54
2023-01-09T10:42:02.962Z,9.53
2023-01-09T10:44:37.361Z,9.51
2023-01-09T10:47:13.400Z,9.51
2023-01-09T10:49:42.117Z,9.51
2023-01-09T10:52:18.062Z,9.52
2023-01-09T10:54:55.832Z,9.52
2023-01-09T10:57:42.959Z,9.52
2023-01-09T11:00:22.944Z,9.53
2023-01-09T11:02:52.218Z,9.55
2023-01-09T11:05:23.290Z,9.54
2023-01-09T11:07:56.521Z,9.51
2023-01-09T11:10:46.147Z,9.56
2023-01-09T11:13:19.399Z,9.56
2023-01-09T11:15:47.432Z,9.52
2023-01-09T11:18:21.498Z,9.47
2023-01-09T11:20:49.476Z,9.43
2023-01-09T11:23:29.812Z,9.35
2023-01-09T11:26:01.696Z,9.41
2023-01-09T11:28:31.483Z,9.36
2023-01-09T11:31:01.108Z,9.37
2023-01-09T11:33:30.944Z,9.28
2023-01-09T11:36:04.211Z,9.36
2023-01-09T11:38:34.341Z,9.29
2023-01-09T11:41:06.673Z,9.29
2023-01-09T11:43:37.720Z,9.27
2023-01-09T11:46:07.386Z,9.25
2023-01-09T11:48:38.812Z,9.19
2023-01-09T11:51:20.694Z,9.19
2023-01-09T11:54:13.780Z,9.16
2023-01-09T11:56:43.838Z,9.18
2023-01-09T11:59:13.495Z,9.20
2023-01-09T12:02:29.436Z,9.21
2023-01-09T12:05:01.142Z,9.16
2023-01-09T12:08:07.148Z,9.26
2023-01-09T12:10:56.147Z,9.27
2023-01-09T12:13:44.043Z,9.33
2023-01-09T12:16:20.126Z,9.33
2023-01-09T12:19:00.532Z,9.31
2023-01-09T12:21:34.463Z,9.32
2023-01-09T12:24:41.665Z,9.29
2023-01-09T12:27:25.519Z,9.22
2023-01-09T12:30:22.123Z,9.25
2023-01-09T12:33:02.793Z,9.27
2023-01-09T12:35:38.098Z,9.28
2023-01-09T12:38:27.550Z,9.31
2023-01-09T12:41:28.316Z,9.33
2023-01-09T12:44:24.294Z,9.34
2023-01-09T12:47:19.894Z,9.30
2023-01-09T12:49:55.791Z,9.32
2023-01-09T12:52:27.562Z,9.28
2023-01-09T12:55:05.093Z,9.28
2023-01-09T12:57:38.190Z,9.19
2023-01-09T13:00:15.135Z,9.31
2023-01-09T13:02:51.687Z,9.32
2023-01-09T13:05:27.621Z,9.31
2023-01-09T13:08:00.522Z,9.28
2023-01-09T13:10:33.130Z,9.21
2023-01-09T13:13:07.068Z,9.15
2023-01-09T13:15:40.412Z,9.14
2023-01-09T13:18:15.243Z,9.10
2023-01-09T13:20:45.681Z,8.98
2023-01-09T13:23:22.446Z,9.11
2023-01-09T13:25:52.925Z,9.08
2023-01-09T13:28:25.131Z,8.96
2023-01-09T13:31:09.442Z,9.00
2023-01-09T13:33:40.862Z,8.98
2023-01-09T13:36:08.938Z,8.96
2023-01-09T13:38:39.438Z,8.97
2023-01-09T13:41:30.722Z,8.97
2023-01-09T13:44:00.873Z,8.98
2023-01-09T13:46:47.782Z,8.94
2023-01-09T13:49:32.674Z,8.92
2023-01-09T13:52:03.967Z,8.87
2023-01-09T13:55:04.596Z,8.83
2023-01-09T13:57:35.512Z,8.81
2023-01-09T14:00:37.030Z,8.77
2023-01-09T14:03:14.498Z,8.58
2023-01-09T14:06:17.213Z,8.74
2023-01-09T14:08:48.099Z,8.77
2023-01-09T14:11:27.493Z,8.78
2023-01-09T14:14:08.207Z,8.80
2023-01-09T14:16:37.975Z,8.81
2023-01-09T14:19:19.512Z,8.83
2023-01-09T14:21:53.504Z,8.86
2023-01-09T14:24:27.933Z,8.86
2023-01-09T14:26:58.002Z,8.70
2023-01-09T14:29:44.579Z,8.81
2023-01-09T14:32:38.848Z,8.78
2023-01-09T14:35:16.084Z,8.76
2023-01-09T14:38:00.916Z,8.74
2023-01-09T14:40:30.051Z,8.72
2023-01-09T14:43:04.555Z,8.60
2023-01-09T14:45:35.934Z,8.68
2023-01-09T14:48:07.214Z,8.70
2023-01-09T14:50:38.710Z,8.68
2023-01-09T14:53:12.661Z,8.62
2023-01-09T14:55:50.635Z,8.68
2023-01-09T14:58:23.874Z,8.70
2023-01-09T15:01:00.639Z,8.65
2023-01-09T15:03:34.114Z,8.71
2023-01-09T15:06:02.696Z,8.71
2023-01-09T15:08:33.140Z,8.70
2023-01-09T15:11:01.224Z,8.68
2023-01-09T15:13:37.482Z,8.63
2023-01-09T15:16:07.640Z,8.49
2023-01-09T15:18:41.648Z,8.59
2023-01-09T15:21:18.727Z,8.59
2023-01-09T15:23:48.013Z,8.56
2023-01-09T15:26:26.118Z,8.55
2023-01-09T15:28:55.624Z,8.54
2023-01-09T15:31:25.175Z,8.52
2023-01-09T15:33:54.177Z,8.52
2023-01-09T15:36:25.430Z,8.52
2023-01-09T15:38:55.653Z,8.52
2023-01-09T15:41:44.607Z,8.52
2023-01-09T15:44:15.480Z,8.44
2023-01-09T15:46:46.242Z,8.51
2023-01-09T15:49:15.196Z,8.51
2023-01-09T15:51:45.547Z,8.50
2023-01-09T15:54:17.194Z,8.50
2023-01-09T15:56:46.470Z,8.48
2023-01-09T15:59:32.221Z,8.47
2023-01-09T16:02:15.884Z,8.48
2023-01-09T16:04:44.035Z,8.48
2023-01-09T16:07:16.439Z,8.46
2023-01-09T16:09:48.251Z,8.26
2023-01-09T16:12:21.208Z,8.43
2023-01-09T16:14:53.480Z,8.42
2023-01-09T16:17:23.919Z,8.37
2023-01-09T16:19:53.573Z,8.37
2023-01-09T16:22:23.562Z,8.32
2023-01-09T16:24:54.504Z,8.30
2023-01-09T16:27:26.049Z,8.29
2023-01-09T16:29:57.835Z,8.31
2023-01-09T16:32:29.495Z,8.32
2023-01-09T16:34:58.878Z,8.31
2023-01-09T16:37:27.792Z,8.30
2023-01-09T16:40:25.095Z,8.26
2023-01-09T16:43:08.103Z,8.22
2023-01-09T16:45:38.010Z,8.20
2023-01-09T16:48:13.628Z,8.18
2023-01-09T16:50:42.483Z,8.19
2023-01-09T16:53:15.452Z,8.18
2023-01-09T16:55:45.070Z,8.17
2023-01-09T16:58:17.628Z,8.18
2023-01-09T17:00:47.817Z,8.02
2023-01-09T17:03:16.601Z,8.16
2023-01-09T17:05:52.798Z,8.17
2023-01-09T17:08:24.336Z,8.16
2023-01-09T17:10:56.097Z,8.10
2023-01-09T17:13:24.642Z,8.16
2023-01-09T17:15:53.793Z,8.13
2023-01-09T17:18:23.798Z,8.14
2023-01-09T17:20:53.461Z,8.15
2023-01-09T17:23:25.699Z,8.19
2023-01-09T17:26:17.358Z,8.08
2023-01-09T17:28:48.899Z,8.18
2023-01-09T17:31:20.199Z,8.06
2023-01-09T17:33:48.237Z,8.16
2023-01-09T17:36:23.382Z,8.15
2023-01-09T17:38:54.834Z,8.15
2023-01-09T17:41:25.640Z,8.18
2023-01-09T17:43:54.163Z,8.03
2023-01-09T17:46:27.364Z,8.17
2023-01-09T17:48:55.675Z,8.15
2023-01-09T17:51:26.774Z,8.15
2023-01-09T17:53:54.761Z,8.03
2023-01-09T17:56:27.938Z,8.15
2023-01-09T17:58:55.886Z,8.15
2023-01-09T18:01:23.788Z,8.14
2023-01-09T18:03:51.836Z,8.15
2023-01-09T18:06:21.759Z,8.15
2023-01-09T18:08:49.687Z,8.17
2023-01-09T18:11:19.233Z,8.17
2023-01-09T18:13:50.224Z,8.19
2023-01-09T18:16:20.439Z,8.20
2023-01-09T18:18:48.442Z,8.18
2023-01-09T18:21:18.910Z,8.14
2023-01-09T18:23:48.292Z,8.14
2023-01-09T18:26:20.772Z,8.12
2023-01-09T18:28:51.809Z,8.13
2023-01-09T18:31:22.705Z,8.14
2023-01-09T18:33:52.699Z,8.12
2023-01-09T18:36:22.347Z,8.11
2023-01-09T18:38:54.169Z,8.14
2023-01-09T18:41:22.547Z,8.16
2023-01-09T18:43:54.481Z,8.15
2023-01-09T18:46:24.869Z,8.13
2023-01-09T18:48:53.656Z,8.20
2023-01-09T18:51:22.367Z,8.22
2023-01-09T18:53:50.300Z,8.23
2023-01-09T18:56:19.253Z,8.23
2023-01-09T18:58:47.305Z,8.22
2023-01-09T19:01:17.370Z,8.21
2023-01-09T19:03:46.112Z,8.20
2023-01-09T19:06:14.123Z,8.13
2023-01-09T19:08:42.207Z,8.16
2023-01-09T19:11:10.061Z,8.18
2023-01-09T19:13:39.211Z,8.18
2023-01-09T19:16:09.008Z,8.00
2023-01-09T19:18:40.217Z,8.13
2023-01-09T19:21:13.101Z,8.17
2023-01-09T19:23:41.823Z,8.16
2023-01-09T19:26:16.259Z,8.16
2023-01-09T19:28:45.458Z,8.11
2023-01-09T19:31:13.682Z,7.94
2023-01-09T19:33:43.144Z,8.13
2023-01-09T19:36:11.490Z,8.12
2023-01-09T19:38:39.535Z,8.10
2023-01-09T19:41:12.712Z,8.10
2023-01-09T19:43:41.158Z,8.16
2023-01-09T19:46:10.511Z,8.12
2023-01-09T19:48:38.450Z,8.18
2023-01-09T19:51:08.907Z,8.08
2023-01-09T19:53:37.789Z,8.15
2023-01-09T19:56:10.699Z,8.17
2023-01-09T19:58:38.856Z,8.17
2023-01-09T20:01:08.781Z,8.12
2023-01-09T20:03:37.798Z,8.14
2023-01-09T20:06:09.949Z,8.10
2023-01-09T20:08:38.047Z,8.09
2023-01-09T20:11:06.749Z,8.05
2023-01-09T20:13:35.106Z,8.05
2023-01-09T20:16:04.029Z,8.05
2023-01-09T20:18:33.829Z,7.98
2023-01-09T20:21:02.196Z,7.90
2023-01-09T20:23:32.586Z,7.88
2023-01-09T20:26:00.995Z,7.82
2023-01-09T20:28:29.043Z,7.86
2023-01-09T20:30:57.023Z,7.80
2023-01-09T20:33:25.148Z,7.70
2023-01-09T20:35:53.027Z,7.56
2023-01-09T20:38:20.911Z,7.51
2023-01-09T20:40:50.093Z,7.46
2023-01-09T20:43:17.985Z,7.38
2023-01-09T20:45:48.543Z,7.24
2023-01-09T20:48:16.741Z,7.18
2023-01-09T20:50:44.668Z,7.22
2023-01-09T20:53:12.649Z,7.13
2023-01-09T20:55:40.562Z,7.11
2023-01-09T20:58:09.810Z,7.13
2023-01-09T21:00:37.802Z,7.12
2023-01-09T21:03:05.975Z,7.13
2023-01-09T21:05:33.889Z,7.10
2023-01-09T21:08:01.770Z,7.18
2023-01-09T21:10:29.803Z,7.19
2023-01-09T21:12:57.735Z,7.21
2023-01-09T21:15:27.323Z,7.15
2023-01-09T21:17:55.885Z,7.19
2023-01-09T21:20:23.943Z,7.17
2023-01-09T21:22:52.044Z,7.19
2023-01-09T21:25:19.945Z,7.19
2023-01-09T21:27:49.444Z,7.18
2023-01-09T21:30:17.489Z,7.20
2023-01-09T21:32:46.677Z,7.20
2023-01-09T21:35:14.535Z,7.14
2023-01-09T21:37:42.709Z,7.22
2023-01-09T21:40:14.444Z,7.19
2023-01-09T21:42:59.777Z,7.19
2023-01-09T21:45:45.331Z,7.16
2023-01-09T21:48:15.250Z,7.09
2023-01-09T21:50:43.146Z,7.17
2023-01-09T21:53:11.181Z,7.16
2023-01-09T21:55:38.991Z,7.07
2023-01-09T21:58:06.887Z,7.12
2023-01-09T22:00:34.798Z,7.12
2023-01-09T22:03:02.630Z,7.12
2023-01-09T22:05:31.798Z,7.05
2023-01-09T22:07:59.710Z,7.00
2023-01-09T22:10:27.530Z,7.10
2023-01-09T22:13:16.004Z,7.09
2023-01-09T22:15:44.848Z,7.08
2023-01-09T22:18:12.655Z,7.09
2023-01-09T22:20:42.202Z,7.08
2023-01-09T22:23:10.423Z,7.07
2023-01-09T22:25:38.848Z,7.03
2023-01-09T22:28:09.943Z,7.01
2023-01-09T22:30:40.298Z,7.02
2023-01-09T22:33:10.648Z,7.02
2023-01-09T22:35:39.299Z,6.95
2023-01-09T22:38:09.097Z,7.02
2023-01-09T22:40:38.099Z,6.99
2023-01-09T22:43:06.313Z,7.02
2023-01-09T22:45:34.692Z,6.90
2023-01-09T22:48:02.614Z,7.00
2023-01-09T22:50:30.525Z,6.83
2023-01-09T22:52:58.379Z,7.00
2023-01-09T22:55:27.703Z,6.99
2023-01-09T22:57:55.631Z,7.00
2023-01-09T23:00:23.616Z,6.98
2023-01-09T23:02:52.030Z,6.95
2023-01-09T23:05:20.527Z,6.94
2023-01-09T23:07:48.354Z,6.92
2023-01-09T23:10:17.127Z,6.90
2023-01-09T23:12:48.507Z,6.95
2023-01-09T23:15:16.491Z,6.93
2023-01-09T23:17:44.383Z,6.94
2023-01-09T23:20:13.097Z,6.90
2023-01-09T23:22:40.894Z,6.92
2023-01-09T23:25:09.758Z,6.91
2023-01-09T23:27:37.781Z,6.89
2023-01-09T23:30:08.789Z,6.74
2023-01-09T23:32:36.642Z,6.88
2023-01-09T23:35:05.107Z,6.94
2023-01-09T23:37:32.975Z,6.91
2023-01-09T23:40:00.815Z,6.89
2023-01-09T23:42:46.226Z,6.86
2023-01-09T23:45:15.629Z,6.87
2023-01-09T23:47:43.460Z,6.87
2023-01-09T23:50:13.080Z,6.87
2023-01-09T23:52:40.983Z,6.86
2023-01-09T23:55:10.980Z,6.77
2023-01-09T23:57:38.935Z,6.81
